KARM

Details ICAO KARM
Name WHARTON RGNL
Region United States
Timezone America/Chicago (UTC-5.0)
Plans Departing 2
Arriving 4
Stats Elevation 100 ft / 30 m (AMSL)
Location 29.254265° -96.154402°
Runways 1
Magnetic Variation 2.911° E
Sunrise 2018-05-21 11:30:51 UTC / 2018-05-21 06:30:51 Local
Sunset 2018-05-22 01:14:27 UTC / 2018-05-21 20:14:27 Local
Advertisement - Login to hide

Runways

ID Width Length Bearing (true) Bearing (mag) Surface Threshold Offset Overrun Length
14 75 ft / 23 m 5,016 ft / 1,529 m 150.93° 148.02° Asphalt 0 ft / 0 m 0 ft / 0 m
32 75 ft / 23 m 5,016 ft / 1,529 m 330.94° 328.03° Asphalt 0 ft / 0 m 0 ft / 0 m

Map

Weather


0- 5 10 15 20 25 30 35+ Temperature / ° C

Clouds and Precipitation
Forecast for 2018-05-21 12:00 UTC. Updated 32 minutes ago

Ground ~20,000 ft ~40,000 ft Winds

METAR

KARM 210935Z AUTO 07004KT 7SM CLR 22/21 A2994 RMK AO2 T02180207

TAF

Not found

Frequencies

Recorded 118.47 MHz AWOS 3
Unicom 122.70 MHz CTAF/UNICOM
Warning: Do not use this data for real-world aviation or navigation. No guarantee of current accuracy is given.